Time;durP1;ratioP1;P1;durP2;ratioP2;P2;SDS_P1;SDS_P2;PMS_P1;PMS_P2;Temp;Humidity;BMP_temperature;BMP_pressure;BME280_temperature;BME280_humidity;BME280_pressure;Samples;Min_cycle;Max_cycle;Signal;HPM_P1;HPM_P2
2023/07/01 00:02:57;;;;;;;;;;;18.90;99.90;;;;;;6203977;28;2742;-77
2023/07/01 00:06:01;;;;;;;;;;;18.90;99.90;;;;;;6201042;28;1121;-77
2023/07/01 00:09:03;;;;;;;;;;;18.90;99.90;;;;;;6204871;28;1984;-78
2023/07/01 00:12:05;;;;;;;;;;;18.80;99.90;;;;;;6249413;28;1061;-77
2023/07/01 00:15:07;;;;;;;;;;;18.80;99.90;;;;;;6249017;28;1049;-76
2023/07/01 00:18:09;;;;;;;;;;;18.90;99.90;;;;;;6249227;28;1001;-75
2023/07/01 00:21:12;;;;;;;;;;;18.80;99.90;;;;;;6245290;28;1739;-77
2023/07/01 00:24:14;;;;;;;;;;;18.80;99.90;;;;;;6249186;28;1041;-76
2023/07/01 00:27:15;;;;;;;;;;;18.80;99.90;;;;;;6225777;28;1741;-78
2023/07/01 00:30:17;;;;;;;;;;;18.70;99.90;;;;;;6234821;28;1894;-77
2023/07/01 00:33:19;;;;;;;;;;;18.70;99.90;;;;;;6248753;28;1201;-75
2023/07/01 00:36:22;;;;;;;;;;;18.70;99.90;;;;;;6248630;28;1575;-77
2023/07/01 00:39:24;;;;;;;;;;;18.60;99.90;;;;;;6247152;28;1840;-79
2023/07/01 00:42:26;;;;;;;;;;;18.50;99.90;;;;;;6229078;28;1150;-78
2023/07/01 00:45:27;;;;;;;;;;;18.50;99.90;;;;;;6229664;28;1100;-77
2023/07/01 00:48:30;;;;;;;;;;;18.40;99.90;;;;;;6229241;28;1981;-79
2023/07/01 00:51:33;;;;;;;;;;;18.40;99.90;;;;;;6249691;28;2040;-77
2023/07/01 00:54:35;;;;;;;;;;;18.40;99.90;;;;;;6236507;28;1730;-77
2023/07/01 00:57:37;;;;;;;;;;;18.40;99.90;;;;;;6229524;28;996;-77
2023/07/01 01:00:39;;;;;;;;;;;18.30;99.90;;;;;;6241423;28;1607;-78
2023/07/01 01:03:45;;;;;;;;;;;18.20;99.90;;;;;;6253391;28;1087;-78
2023/07/01 01:06:52;;;;;;;;;;;18.20;99.90;;;;;;6253397;28;1075;-76
2023/07/01 01:09:57;;;;;;;;;;;18.30;99.90;;;;;;6250485;28;1983;-79
2023/07/01 01:12:59;;;;;;;;;;;18.20;99.90;;;;;;6253299;28;1522;-79
2023/07/01 01:16:02;;;;;;;;;;;18.20;99.90;;;;;;6256517;28;1141;-78
2023/07/01 01:19:06;;;;;;;;;;;18.20;99.90;;;;;;6251500;28;1599;-77
2023/07/01 01:22:16;;;;;;;;;;;18.10;99.90;;;;;;6231591;28;1039;-79
2023/07/01 01:25:24;;;;;;;;;;;18.10;99.90;;;;;;6230377;28;1090;-77
2023/07/01 01:28:27;;;;;;;;;;;18.10;99.90;;;;;;6247371;28;1981;-75
2023/07/01 01:31:29;;;;;;;;;;;18.00;99.90;;;;;;6228001;28;1559;-76
2023/07/01 01:34:30;;;;;;;;;;;17.90;99.90;;;;;;6227772;28;1269;-77
2023/07/01 01:37:39;;;;;;;;;;;18.00;99.90;;;;;;6227950;28;1129;-79
2023/07/01 01:40:44;;;;;;;;;;;18.00;99.90;;;;;;6241757;28;1655;-77
2023/07/01 01:43:50;;;;;;;;;;;17.90;99.90;;;;;;6248334;28;1602;-76
2023/07/01 01:46:52;;;;;;;;;;;18.00;99.90;;;;;;6252228;28;1078;-76
2023/07/01 01:49:57;;;;;;;;;;;17.90;99.90;;;;;;6226104;28;1987;-77
2023/07/01 01:53:01;;;;;;;;;;;17.90;99.90;;;;;;6226440;28;1670;-76
2023/07/01 01:56:03;;;;;;;;;;;17.90;99.90;;;;;;6227519;28;1281;-76
2023/07/01 01:59:07;;;;;;;;;;;17.90;99.90;;;;;;6227286;28;1099;-74
2023/07/01 02:02:09;;;;;;;;;;;17.90;99.90;;;;;;6213305;28;2461;-76
2023/07/01 02:05:10;;;;;;;;;;;17.80;99.90;;;;;;6236187;28;1676;-78
2023/07/01 02:08:12;;;;;;;;;;;17.80;99.90;;;;;;6250577;28;1880;-75
2023/07/01 02:11:14;;;;;;;;;;;17.80;99.90;;;;;;6251679;28;1102;-78
2023/07/01 02:14:17;;;;;;;;;;;17.80;99.90;;;;;;6251597;28;1234;-77
2023/07/01 02:17:19;;;;;;;;;;;17.70;99.90;;;;;;6230792;28;1800;-75
2023/07/01 02:20:20;;;;;;;;;;;17.70;99.90;;;;;;6228059;28;1762;-76
2023/07/01 02:23:22;;;;;;;;;;;17.70;99.90;;;;;;6251284;28;1109;-74
2023/07/01 02:26:24;;;;;;;;;;;17.70;99.90;;;;;;6247149;28;1726;-78
2023/07/01 02:29:27;;;;;;;;;;;17.70;99.90;;;;;;6251386;28;1977;-75
2023/07/01 02:32:28;;;;;;;;;;;17.70;99.90;;;;;;6251021;28;1067;-78
2023/07/01 02:35:30;;;;;;;;;;;17.70;99.90;;;;;;6251029;28;1263;-78
2023/07/01 02:38:32;;;;;;;;;;;17.70;99.90;;;;;;6248006;28;1729;-77
2023/07/01 02:41:33;;;;;;;;;;;17.70;99.90;;;;;;6250856;28;1052;-77
2023/07/01 02:44:36;;;;;;;;;;;17.80;99.90;;;;;;6250895;28;1099;-79
2023/07/01 02:47:38;;;;;;;;;;;17.70;99.90;;;;;;6240453;28;1734;-77
2023/07/01 02:50:40;;;;;;;;;;;17.80;99.90;;;;;;6243926;28;1967;-79
2023/07/01 02:53:41;;;;;;;;;;;17.70;99.90;;;;;;6249400;28;1603;-77
2023/07/01 02:56:43;;;;;;;;;;;17.80;99.90;;;;;;6250669;28;1031;-79
2023/07/01 02:59:47;;;;;;;;;;;17.70;99.90;;;;;;6249694;28;1815;-78
2023/07/01 03:02:50;;;;;;;;;;;17.70;99.90;;;;;;6253768;28;1057;-78
2023/07/01 03:05:52;;;;;;;;;;;17.80;99.90;;;;;;6245924;28;1658;-76
2023/07/01 03:08:53;;;;;;;;;;;17.80;99.90;;;;;;6228115;28;1902;-76
2023/07/01 03:11:55;;;;;;;;;;;17.80;99.90;;;;;;6233986;28;1726;-77
2023/07/01 03:14:58;;;;;;;;;;;17.70;99.90;;;;;;6225793;28;1095;-75
2023/07/01 03:18:00;;;;;;;;;;;17.70;99.90;;;;;;6225113;28;1644;-78
2023/07/01 03:21:02;;;;;;;;;;;17.70;99.90;;;;;;6227295;28;1004;-78
2023/07/01 03:24:04;;;;;;;;;;;17.70;99.90;;;;;;6228488;28;1750;-78
2023/07/01 03:27:07;;;;;;;;;;;17.80;99.90;;;;;;6256967;28;1049;-77
2023/07/01 03:30:13;;;;;;;;;;;17.70;99.90;;;;;;6255043;28;1902;-80
2023/07/01 03:33:17;;;;;;;;;;;17.80;99.90;;;;;;6254527;28;1012;-79
2023/07/01 03:36:19;;;;;;;;;;;17.70;99.90;;;;;;6249692;28;1709;-80
2023/07/01 03:39:20;;;;;;;;;;;17.70;99.90;;;;;;6254083;28;1022;-77
2023/07/01 03:42:22;;;;;;;;;;;17.70;99.90;;;;;;6251569;28;1096;-76
2023/07/01 03:45:25;;;;;;;;;;;17.70;99.90;;;;;;6251225;28;1029;-77
2023/07/01 03:48:27;;;;;;;;;;;17.70;99.90;;;;;;6245426;28;1634;-76
2023/07/01 03:51:32;;;;;;;;;;;17.70;99.90;;;;;;6252805;28;1969;-79
2023/07/01 03:54:34;;;;;;;;;;;17.70;99.90;;;;;;6247759;28;1797;-75
2023/07/01 03:57:36;;;;;;;;;;;17.70;99.90;;;;;;6238256;28;1721;-76
2023/07/01 04:00:39;;;;;;;;;;;17.70;99.90;;;;;;6225266;28;1052;-75
2023/07/01 04:03:41;;;;;;;;;;;17.70;99.90;;;;;;6207106;28;2044;-75
2023/07/01 04:06:43;;;;;;;;;;;17.70;99.90;;;;;;6224689;28;1035;-74
2023/07/01 04:09:44;;;;;;;;;;;17.70;99.90;;;;;;6235451;28;1902;-76
2023/07/01 04:12:46;;;;;;;;;;;17.70;99.90;;;;;;6252772;28;1060;-76
2023/07/01 04:15:49;;;;;;;;;;;17.70;99.90;;;;;;6254398;28;1070;-76
2023/07/01 04:18:51;;;;;;;;;;;17.70;99.90;;;;;;6254277;28;1042;-75
2023/07/01 04:21:52;;;;;;;;;;;17.80;99.90;;;;;;6251546;28;1662;-78
2023/07/01 04:24:54;;;;;;;;;;;17.80;99.90;;;;;;6253114;28;1654;-78
2023/07/01 04:27:56;;;;;;;;;;;17.80;99.90;;;;;;6247330;28;1809;-76
2023/07/01 04:30:59;;;;;;;;;;;17.80;99.90;;;;;;6250957;28;2039;-76
2023/07/01 04:34:00;;;;;;;;;;;17.90;99.90;;;;;;6236711;28;1564;-77
2023/07/01 04:37:02;;;;;;;;;;;17.90;99.90;;;;;;6237478;28;2675;-77
2023/07/01 04:40:05;;;;;;;;;;;17.90;99.90;;;;;;6216318;28;2501;-77
2023/07/01 04:43:07;;;;;;;;;;;17.90;99.90;;;;;;6221645;28;2708;-75
2023/07/01 04:46:10;;;;;;;;;;;17.90;99.90;;;;;;6234960;28;1970;-75
2023/07/01 04:49:11;;;;;;;;;;;18.00;99.90;;;;;;6224445;28;2557;-76
2023/07/01 04:52:15;;;;;;;;;;;18.00;99.90;;;;;;6228377;28;2808;-78
2023/07/01 04:55:18;;;;;;;;;;;17.90;99.90;;;;;;6239256;28;2418;-77
2023/07/01 04:58:20;;;;;;;;;;;17.90;99.90;;;;;;6228520;28;1084;-76
2023/07/01 05:01:23;;;;;;;;;;;17.90;99.90;;;;;;6240185;28;1872;-77
2023/07/01 05:04:25;;;;;;;;;;;17.90;99.90;;;;;;6253382;28;1041;-78
2023/07/01 05:07:26;;;;;;;;;;;17.90;99.90;;;;;;6245356;28;1998;-79
2023/07/01 05:10:28;;;;;;;;;;;17.80;99.90;;;;;;6247934;28;1979;-76
2023/07/01 05:13:30;;;;;;;;;;;17.90;99.90;;;;;;6233424;28;1035;-78
2023/07/01 05:16:33;;;;;;;;;;;17.90;99.90;;;;;;6227158;28;1804;-77
2023/07/01 05:19:35;;;;;;;;;;;17.90;99.90;;;;;;6227967;28;1796;-78
2023/07/01 05:22:37;;;;;;;;;;;17.90;99.90;;;;;;6251683;28;1279;-77
2023/07/01 05:25:38;;;;;;;;;;;17.90;99.90;;;;;;6247984;28;1872;-79
2023/07/01 05:28:44;;;;;;;;;;;17.90;99.90;;;;;;6247258;28;1753;-76
2023/07/01 05:31:50;;;;;;;;;;;17.90;99.90;;;;;;6228117;28;1969;-75
2023/07/01 05:34:52;;;;;;;;;;;17.90;99.90;;;;;;6213302;28;1874;-78
2023/07/01 05:37:54;;;;;;;;;;;18.00;99.90;;;;;;6247408;28;1412;-77
2023/07/01 05:40:55;;;;;;;;;;;18.00;99.90;;;;;;6252520;28;1069;-79
2023/07/01 05:43:57;;;;;;;;;;;18.10;99.90;;;;;;6252358;28;1049;-75
2023/07/01 05:47:00;;;;;;;;;;;18.20;99.90;;;;;;6236171;28;1409;-76
2023/07/01 05:50:02;;;;;;;;;;;18.20;99.90;;;;;;6227370;28;1981;-79
2023/07/01 05:53:04;;;;;;;;;;;18.20;99.90;;;;;;6225983;28;2592;-76
2023/07/01 05:59:16;;;;;;;;;;;18.30;99.90;;;;;;5421063;22;2887;-77
2023/07/01 06:02:19;;;;;;;;;;;18.30;99.90;;;;;;6244874;28;2894;-77
2023/07/01 06:05:20;;;;;;;;;;;18.30;99.90;;;;;;6247450;28;2921;-76
2023/07/01 06:08:22;;;;;;;;;;;18.50;99.90;;;;;;6240740;28;2945;-78
2023/07/01 06:11:24;;;;;;;;;;;18.50;99.90;;;;;;6227133;28;1902;-77
2023/07/01 06:14:26;;;;;;;;;;;18.40;99.90;;;;;;6233777;28;1665;-77
2023/07/01 06:17:29;;;;;;;;;;;18.50;99.90;;;;;;6249694;28;1433;-77
2023/07/01 06:20:30;;;;;;;;;;;18.50;99.90;;;;;;6249385;28;2450;-78
2023/07/01 06:23:32;;;;;;;;;;;18.50;99.90;;;;;;6250971;28;1286;-78
2023/07/01 06:26:34;;;;;;;;;;;18.60;99.90;;;;;;6252696;28;1423;-79
2023/07/01 06:29:35;;;;;;;;;;;18.60;99.90;;;;;;6250517;28;1900;-75
2023/07/01 06:32:38;;;;;;;;;;;18.60;99.90;;;;;;6250587;28;1309;-78
2023/07/01 06:35:42;;;;;;;;;;;18.70;99.90;;;;;;6248987;28;1485;-76
2023/07/01 06:38:46;;;;;;;;;;;18.70;99.90;;;;;;6249301;28;1895;-77
2023/07/01 06:41:47;;;;;;;;;;;18.70;99.90;;;;;;6250371;28;1598;-77
2023/07/01 06:44:49;;;;;;;;;;;18.70;99.90;;;;;;6249487;28;1869;-78
2023/07/01 06:47:52;;;;;;;;;;;18.70;99.90;;;;;;6250713;28;1442;-77
2023/07/01 06:50:54;;;;;;;;;;;18.80;99.90;;;;;;6248977;28;2000;-75
2023/07/01 06:53:56;;;;;;;;;;;18.80;99.90;;;;;;6249833;28;1348;-75
2023/07/01 06:56:57;;;;;;;;;;;18.80;99.90;;;;;;6250733;28;1042;-78
2023/07/01 06:59:59;;;;;;;;;;;18.80;99.90;;;;;;6250514;28;1118;-78
2023/07/01 07:03:03;;;;;;;;;;;18.90;99.90;;;;;;6241406;28;2501;-72
2023/07/01 07:06:05;;;;;;;;;;;18.90;99.90;;;;;;6244529;28;1496;-71
2023/07/01 07:09:07;;;;;;;;;;;19.00;99.50;;;;;;6249710;28;1396;-71
2023/07/01 07:12:09;;;;;;;;;;;19.00;99.30;;;;;;6250277;28;1910;-71
2023/07/01 07:15:10;;;;;;;;;;;19.10;99.30;;;;;;6249951;28;1100;-72
2023/07/01 07:18:13;;;;;;;;;;;19.20;98.50;;;;;;6249669;28;1407;-71
2023/07/01 07:21:15;;;;;;;;;;;19.30;98.40;;;;;;6249969;28;1075;-72
2023/07/01 07:24:17;;;;;;;;;;;19.40;98.40;;;;;;6249951;28;1967;-72
2023/07/01 07:27:20;;;;;;;;;;;19.40;97.50;;;;;;6248831;28;1458;-80
2023/07/01 07:30:23;;;;;;;;;;;19.50;97.30;;;;;;6249438;28;1977;-82
2023/07/01 07:33:26;;;;;;;;;;;19.40;97.30;;;;;;6248657;28;1465;-78
2023/07/01 07:36:28;;;;;;;;;;;19.50;96.80;;;;;;6249347;28;1442;-78
2023/07/01 07:39:29;;;;;;;;;;;19.50;96.50;;;;;;6249761;28;1095;-81
2023/07/01 07:42:31;;;;;;;;;;;19.60;95.60;;;;;;6249530;28;1050;-78
2023/07/01 07:45:33;;;;;;;;;;;19.60;95.20;;;;;;6249123;28;1143;-79
2023/07/01 07:48:36;;;;;;;;;;;19.70;94.60;;;;;;6249399;28;1135;-79
2023/07/01 07:51:38;;;;;;;;;;;19.80;94.60;;;;;;6249556;28;1914;-79
2023/07/01 07:54:41;;;;;;;;;;;19.90;94.30;;;;;;6249903;28;1050;-79
2023/07/01 07:57:43;;;;;;;;;;;19.90;95.20;;;;;;6249216;28;1149;-79
2023/07/01 08:00:44;;;;;;;;;;;19.90;95.20;;;;;;6249253;28;1079;-82
2023/07/01 08:03:47;;;;;;;;;;;20.00;94.20;;;;;;6249489;28;1040;-80
2023/07/01 08:06:49;;;;;;;;;;;20.00;92.90;;;;;;6250492;28;1354;-79
2023/07/01 08:09:51;;;;;;;;;;;20.10;92.60;;;;;;6256883;28;1445;-81
2023/07/01 08:12:53;;;;;;;;;;;20.10;93.00;;;;;;6256071;28;2105;-79
2023/07/01 08:15:54;;;;;;;;;;;20.10;93.00;;;;;;6249669;28;1429;-80
2023/07/01 08:18:59;;;;;;;;;;;20.20;93.30;;;;;;6249136;28;1022;-79
2023/07/01 08:22:02;;;;;;;;;;;20.30;92.20;;;;;;6249175;28;1047;-78
2023/07/01 08:25:04;;;;;;;;;;;20.30;91.70;;;;;;6249424;28;1066;-81
2023/07/01 08:28:06;;;;;;;;;;;20.40;92.10;;;;;;6249535;28;1458;-81
2023/07/01 08:31:09;;;;;;;;;;;20.50;91.90;;;;;;6249355;28;1894;-82
2023/07/01 08:34:12;;;;;;;;;;;20.60;92.10;;;;;;6248996;28;1017;-81
2023/07/01 08:37:13;;;;;;;;;;;20.70;92.10;;;;;;6248803;28;1079;-81
2023/07/01 08:40:15;;;;;;;;;;;20.80;91.40;;;;;;6249198;28;1150;-82
2023/07/01 08:43:18;;;;;;;;;;;20.80;90.80;;;;;;6249218;28;1067;-82
2023/07/01 08:46:20;;;;;;;;;;;20.80;91.00;;;;;;6249122;28;1024;-81
2023/07/01 08:49:23;;;;;;;;;;;20.80;91.00;;;;;;6248902;28;1059;-81
2023/07/01 08:52:27;;;;;;;;;;;21.00;90.80;;;;;;6248575;28;1906;-79
2023/07/01 08:55:30;;;;;;;;;;;21.10;91.10;;;;;;6248891;28;1108;-80
2023/07/01 08:58:32;;;;;;;;;;;21.10;90.80;;;;;;6251363;28;1374;-79
2023/07/01 09:01:34;;;;;;;;;;;21.20;91.00;;;;;;6253645;28;1095;-83
2023/07/01 09:04:42;;;;;;;;;;;21.30;90.20;;;;;;6252346;28;2160;-81
2023/07/01 09:07:44;;;;;;;;;;;21.20;89.50;;;;;;6253083;28;1105;-82
2023/07/01 09:10:45;;;;;;;;;;;21.10;90.50;;;;;;6253307;28;1894;-81
2023/07/01 09:13:54;;;;;;;;;;;21.10;90.00;;;;;;6252943;28;1093;-81
2023/07/01 09:16:56;;;;;;;;;;;21.10;90.00;;;;;;6252904;28;1063;-78
2023/07/01 09:20:00;;;;;;;;;;;21.20;88.90;;;;;;6252875;28;1062;-80
2023/07/01 09:23:04;;;;;;;;;;;21.30;87.30;;;;;;6253232;28;1050;-81
2023/07/01 09:26:14;;;;;;;;;;;21.40;88.60;;;;;;6253526;28;1085;-82
2023/07/01 09:29:16;;;;;;;;;;;21.50;87.00;;;;;;6254778;28;1021;-83
2023/07/01 09:32:29;;;;;;;;;;;21.70;86.80;;;;;;6254429;28;1910;-81
2023/07/01 09:35:40;;;;;;;;;;;21.60;86.00;;;;;;6254401;28;1103;-83
2023/07/01 09:38:53;;;;;;;;;;;21.70;86.60;;;;;;6252492;28;1221;-81
2023/07/01 09:42:02;;;;;;;;;;;21.60;86.60;;;;;;6252904;28;1074;-81
2023/07/01 09:45:05;;;;;;;;;;;21.70;85.60;;;;;;6251272;28;2318;-83
2023/07/01 09:48:12;;;;;;;;;;;21.80;85.80;;;;;;6251238;28;2085;-81
2023/07/01 09:51:16;;;;;;;;;;;21.80;84.40;;;;;;6252103;28;1979;-82
2023/07/01 09:54:25;;;;;;;;;;;21.80;82.60;;;;;;6252225;28;1233;-81
2023/07/01 09:57:27;;;;;;;;;;;21.80;82.30;;;;;;6252178;28;1006;-82
2023/07/01 10:00:28;;;;;;;;;;;22.00;83.30;;;;;;6251722;28;1114;-81
2023/07/01 10:03:31;;;;;;;;;;;22.10;83.40;;;;;;6251989;28;1074;-80
2023/07/01 10:06:37;;;;;;;;;;;22.20;81.30;;;;;;6252056;28;1029;-82
2023/07/01 10:09:51;;;;;;;;;;;22.30;81.10;;;;;;6251346;28;1476;-81
2023/07/01 10:12:54;;;;;;;;;;;22.40;79.70;;;;;;6251698;28;1899;-82
2023/07/01 10:15:56;;;;;;;;;;;22.50;79.50;;;;;;6251708;28;1120;-83
2023/07/01 10:18:58;;;;;;;;;;;22.40;77.60;;;;;;6251528;28;995;-81
2023/07/01 10:22:22;;;;;;;;;;;22.50;77.20;;;;;;6251331;28;1262;-80
2023/07/01 10:25:31;;;;;;;;;;;22.50;77.90;;;;;;6251261;28;1087;-81
2023/07/01 10:28:34;;;;;;;;;;;22.60;75.80;;;;;;6251435;28;1093;-78
2023/07/01 10:31:36;;;;;;;;;;;22.60;76.50;;;;;;6251336;28;1902;-81
2023/07/01 10:35:15;;;;;;;;;;;22.60;75.00;;;;;;6251184;28;1087;-82
2023/07/01 10:38:22;;;;;;;;;;;22.60;75.20;;;;;;6151472;29;1291;-84
2023/07/01 10:41:52;;;;;;;;;;;22.70;75.60;;;;;;6151442;29;1032;-83
2023/07/01 10:44:54;;;;;;;;;;;22.80;73.00;;;;;;6250948;28;1072;-80
2023/07/01 10:48:15;;;;;;;;;;;22.70;73.80;;;;;;6250694;28;1049;-82
2023/07/01 10:51:16;;;;;;;;;;;22.60;74.30;;;;;;6251014;28;1979;-82
2023/07/01 10:54:30;;;;;;;;;;;22.60;72.00;;;;;;6250565;28;1022;-83
2023/07/01 10:57:32;;;;;;;;;;;22.70;71.60;;;;;;6250685;28;890;-80
2023/07/01 11:00:37;;;;;;;;;;;22.70;73.10;;;;;;6250505;28;1346;-82
2023/07/01 11:03:55;;;;;;;;;;;22.70;72.90;;;;;;6250697;28;996;-84
2023/07/01 11:06:57;;;;;;;;;;;22.70;71.70;;;;;;6250789;28;1205;-83
2023/07/01 11:10:05;;;;;;;;;;;22.90;71.60;;;;;;6250552;28;987;-81
2023/07/01 11:13:07;;;;;;;;;;;23.00;71.30;;;;;;6250469;28;1913;-81
2023/07/01 11:16:10;;;;;;;;;;;23.10;70.60;;;;;;6250524;28;1128;-82
2023/07/01 11:19:16;;;;;;;;;;;23.10;69.60;;;;;;6250036;28;1033;-81
2023/07/01 11:22:17;;;;;;;;;;;23.10;68.50;;;;;;6250259;28;1079;-80
2023/07/01 11:25:20;;;;;;;;;;;23.20;69.40;;;;;;6250193;28;1085;-84
2023/07/01 11:28:32;;;;;;;;;;;23.30;67.70;;;;;;6250357;28;1086;-81
2023/07/01 11:31:36;;;;;;;;;;;23.20;66.70;;;;;;6249881;28;1894;-81
2023/07/01 11:34:38;;;;;;;;;;;23.40;68.20;;;;;;6250115;28;1020;-80
2023/07/01 11:37:42;;;;;;;;;;;23.50;68.40;;;;;;6249970;28;1026;-81
2023/07/01 11:40:45;;;;;;;;;;;23.60;67.40;;;;;;6249918;28;1069;-81
2023/07/01 11:43:47;;;;;;;;;;;23.60;66.20;;;;;;6249872;28;1026;-78
2023/07/01 11:46:49;;;;;;;;;;;23.80;66.70;;;;;;6248354;28;3070;-81
2023/07/01 11:49:51;;;;;;;;;;;23.80;64.90;;;;;;6249624;28;1117;-79
2023/07/01 11:53:06;;;;;;;;;;;23.90;64.30;;;;;;6249909;28;1902;-80
2023/07/01 11:56:17;;;;;;;;;;;24.00;65.50;;;;;;6249571;28;1079;-81
2023/07/01 11:59:29;;;;;;;;;;;24.10;64.20;;;;;;6249465;28;1413;-81
2023/07/01 12:02:32;;;;;;;;;;;24.20;64.00;;;;;;6249560;28;1077;-83
2023/07/01 12:05:34;;;;;;;;;;;24.10;63.20;;;;;;6249552;28;1105;-81
2023/07/01 12:08:54;;;;;;;;;;;24.00;63.30;;;;;;6249541;28;1105;-81
2023/07/01 12:11:57;;;;;;;;;;;24.00;62.70;;;;;;6249673;28;1902;-82
2023/07/01 12:15:00;;;;;;;;;;;24.00;61.50;;;;;;6259491;28;1154;-82
2023/07/01 12:18:21;;;;;;;;;;;23.90;61.40;;;;;;6266831;28;2338;-82
2023/07/01 12:21:27;;;;;;;;;;;23.80;61.70;;;;;;6261037;28;1019;-81
2023/07/01 12:24:30;;;;;;;;;;;23.70;61.30;;;;;;6263159;28;1025;-81
2023/07/01 12:27:33;;;;;;;;;;;23.60;62.00;;;;;;6252520;28;1169;-83
2023/07/01 12:30:35;;;;;;;;;;;23.60;63.00;;;;;;6249341;28;1114;-81
2023/07/01 12:33:37;;;;;;;;;;;23.50;63.90;;;;;;6251960;28;1902;-81
2023/07/01 12:36:38;;;;;;;;;;;23.40;64.90;;;;;;6254434;28;1128;-83
2023/07/01 12:39:44;;;;;;;;;;;23.40;65.20;;;;;;6254003;28;1129;-82
2023/07/01 12:42:51;;;;;;;;;;;23.30;65.10;;;;;;6254157;28;981;-82
2023/07/01 12:45:52;;;;;;;;;;;23.30;65.60;;;;;;6253894;28;1100;-82
2023/07/01 12:48:54;;;;;;;;;;;23.30;65.00;;;;;;6253454;28;1069;-82
2023/07/01 12:51:56;;;;;;;;;;;23.20;65.60;;;;;;6253721;28;1898;-84
2023/07/01 12:54:57;;;;;;;;;;;23.20;65.60;;;;;;6253595;28;1073;-81
2023/07/01 12:58:00;;;;;;;;;;;23.20;67.20;;;;;;6253547;28;1114;-79
2023/07/01 13:01:02;;;;;;;;;;;23.20;67.80;;;;;;6253498;28;1124;-83
2023/07/01 13:04:05;;;;;;;;;;;23.20;67.80;;;;;;6253667;28;1066;-81
2023/07/01 13:07:17;;;;;;;;;;;23.10;68.10;;;;;;6253264;28;1057;-81
2023/07/01 13:10:19;;;;;;;;;;;23.00;68.20;;;;;;6253130;28;1692;-80
2023/07/01 13:13:22;;;;;;;;;;;23.00;68.90;;;;;;6252911;28;1902;-81
2023/07/01 13:16:29;;;;;;;;;;;23.10;69.50;;;;;;6253416;28;1030;-82
2023/07/01 13:19:31;;;;;;;;;;;23.10;69.80;;;;;;6253227;28;1057;-81
2023/07/01 13:22:32;;;;;;;;;;;23.10;69.20;;;;;;6253130;28;1030;-83
2023/07/01 13:25:34;;;;;;;;;;;23.20;69.20;;;;;;6253498;28;1025;-81
2023/07/01 13:28:37;;;;;;;;;;;23.00;68.40;;;;;;6252669;28;1978;-80
2023/07/01 13:31:39;;;;;;;;;;;22.90;69.50;;;;;;6252765;28;1898;-79
2023/07/01 13:34:43;;;;;;;;;;;23.00;69.30;;;;;;6252644;28;1100;-81
2023/07/01 13:37:46;;;;;;;;;;;23.00;70.00;;;;;;6252711;28;1107;-81
2023/07/01 13:40:49;;;;;;;;;;;23.00;69.20;;;;;;6253580;28;1017;-83
2023/07/01 13:44:01;;;;;;;;;;;23.10;69.50;;;;;;6252673;28;1045;-82
2023/07/01 13:47:03;;;;;;;;;;;23.10;69.50;;;;;;6251126;28;2986;-82
2023/07/01 13:50:05;;;;;;;;;;;23.20;69.80;;;;;;6252303;28;1074;-81
2023/07/01 13:53:09;;;;;;;;;;;23.00;69.90;;;;;;6252019;28;1902;-81
2023/07/01 13:56:13;;;;;;;;;;;23.00;70.80;;;;;;6252305;28;1062;-80
2023/07/01 13:59:17;;;;;;;;;;;23.00;70.90;;;;;;6251980;28;1323;-81
2023/07/01 14:02:19;;;;;;;;;;;23.00;71.40;;;;;;6252368;28;1062;-82
2023/07/01 14:05:24;;;;;;;;;;;23.00;70.70;;;;;;6252299;28;1089;-81
2023/07/01 14:08:26;;;;;;;;;;;23.00;71.40;;;;;;6252288;28;1468;-83
2023/07/01 14:11:28;;;;;;;;;;;23.00;71.60;;;;;;6252245;28;1095;-81
2023/07/01 14:14:32;;;;;;;;;;;23.00;71.10;;;;;;6251958;28;1987;-82
2023/07/01 14:17:34;;;;;;;;;;;22.90;71.80;;;;;;6251753;28;1187;-82
2023/07/01 14:20:36;;;;;;;;;;;22.90;72.30;;;;;;6251991;28;1090;-83
2023/07/01 14:23:39;;;;;;;;;;;23.00;72.70;;;;;;6251856;28;1026;-81
2023/07/01 14:26:48;;;;;;;;;;;23.10;73.00;;;;;;6251429;28;1060;-82
2023/07/01 14:29:51;;;;;;;;;;;23.00;72.30;;;;;;6251469;28;710;-81
2023/07/01 14:32:53;;;;;;;;;;;23.00;73.50;;;;;;6252472;28;1883;-82
2023/07/01 14:35:54;;;;;;;;;;;23.00;74.20;;;;;;6254466;28;1077;-81
2023/07/01 14:38:58;;;;;;;;;;;23.00;73.70;;;;;;6251840;28;1030;-81
2023/07/01 14:42:00;;;;;;;;;;;22.90;73.00;;;;;;6251185;28;1087;-81
2023/07/01 14:45:06;;;;;;;;;;;22.70;74.00;;;;;;6251461;28;1092;-81
2023/07/01 14:48:08;;;;;;;;;;;22.70;73.70;;;;;;6255350;28;1066;-80
2023/07/01 14:51:10;;;;;;;;;;;22.50;74.00;;;;;;6264777;28;1105;-81
2023/07/01 14:54:12;;;;;;;;;;;22.50;74.40;;;;;;6261922;28;1914;-82
2023/07/01 14:57:15;;;;;;;;;;;22.50;75.70;;;;;;6257143;28;1087;-82
2023/07/01 15:00:18;;;;;;;;;;;22.50;75.80;;;;;;6258722;28;1290;-80
2023/07/01 15:03:20;;;;;;;;;;;22.50;75.60;;;;;;6257946;28;1038;-82
2023/07/01 15:06:21;;;;;;;;;;;22.40;75.60;;;;;;6250788;28;1019;-82
2023/07/01 15:09:23;;;;;;;;;;;22.40;75.80;;;;;;6250863;28;1077;-82
2023/07/01 15:12:25;;;;;;;;;;;22.30;76.30;;;;;;6250592;28;1902;-81
2023/07/01 15:15:28;;;;;;;;;;;22.30;77.00;;;;;;6250637;28;1105;-81
2023/07/01 15:18:30;;;;;;;;;;;22.10;78.10;;;;;;6250395;28;1105;-83
2023/07/01 15:21:31;;;;;;;;;;;22.20;78.30;;;;;;6250684;28;1014;-82
2023/07/01 15:24:33;;;;;;;;;;;22.30;78.10;;;;;;6250276;28;1021;-81
2023/07/01 15:27:35;;;;;;;;;;;22.30;77.80;;;;;;6250369;28;995;-83
2023/07/01 15:30:38;;;;;;;;;;;22.30;77.60;;;;;;6250098;28;1034;-81
2023/07/01 15:33:39;;;;;;;;;;;22.30;77.90;;;;;;6249912;28;1992;-80
2023/07/01 15:36:41;;;;;;;;;;;22.30;77.80;;;;;;6250087;28;1990;-82
2023/07/01 15:39:43;;;;;;;;;;;22.40;77.90;;;;;;6249852;28;1013;-82
2023/07/01 15:42:45;;;;;;;;;;;22.40;78.30;;;;;;6249962;28;1065;-81
2023/07/01 15:45:51;;;;;;;;;;;22.40;78.40;;;;;;6248168;28;3042;-84
2023/07/01 15:48:53;;;;;;;;;;;22.30;79.30;;;;;;6225543;28;1129;-82
2023/07/01 15:51:54;;;;;;;;;;;22.30;79.90;;;;;;6225478;28;1050;-82
2023/07/01 15:54:56;;;;;;;;;;;22.30;80.40;;;;;;6226168;28;1974;-82
2023/07/01 15:57:58;;;;;;;;;;;22.20;82.40;;;;;;6225368;28;1470;-82
2023/07/01 16:01:01;;;;;;;;;;;22.20;84.60;;;;;;6241353;28;1085;-81
2023/07/01 16:04:02;;;;;;;;;;;22.10;84.70;;;;;;6242391;28;1094;-79
2023/07/01 16:07:10;;;;;;;;;;;22.10;86.40;;;;;;6237563;28;1093;-83
2023/07/01 16:10:11;;;;;;;;;;;22.00;87.90;;;;;;6240002;28;1107;-79
2023/07/01 16:13:33;;;;;;;;;;;21.90;88.30;;;;;;6239011;28;1879;-82
2023/07/01 16:16:36;;;;;;;;;;;21.80;87.30;;;;;;6243321;28;1193;-81
2023/07/01 16:19:42;;;;;;;;;;;21.70;88.40;;;;;;6242694;28;1093;-81
2023/07/01 16:22:44;;;;;;;;;;;21.50;90.10;;;;;;6229397;28;1051;-82
2023/07/01 16:25:45;;;;;;;;;;;21.30;91.00;;;;;;6234629;28;1110;-83
2023/07/01 16:28:47;;;;;;;;;;;21.20;91.90;;;;;;6231822;28;1089;-82
2023/07/01 16:31:51;;;;;;;;;;;21.20;92.80;;;;;;6229103;28;1058;-85
2023/07/01 16:34:53;;;;;;;;;;;21.20;93.10;;;;;;6229598;28;1914;-83
2023/07/01 16:37:58;;;;;;;;;;;21.10;93.50;;;;;;6228054;28;1066;-82
2023/07/01 16:40:59;;;;;;;;;;;21.00;94.20;;;;;;6229294;28;1034;-82
2023/07/01 16:44:01;;;;;;;;;;;21.00;94.70;;;;;;6231108;28;1106;-83
2023/07/01 16:47:04;;;;;;;;;;;20.80;96.20;;;;;;6227745;28;1047;-84
2023/07/01 16:50:15;;;;;;;;;;;20.70;97.40;;;;;;6226999;28;1121;-83
2023/07/01 16:53:17;;;;;;;;;;;20.80;98.20;;;;;;6225531;28;1906;-84
2023/07/01 16:56:38;;;;;;;;;;;20.80;98.90;;;;;;6226144;28;1010;-82
2023/07/01 16:59:46;;;;;;;;;;;20.80;99.30;;;;;;6224981;28;1433;-84
2023/07/01 17:03:15;;;;;;;;;;;20.80;99.10;;;;;;6225380;28;1007;-82
2023/07/01 17:06:42;;;;;;;;;;;20.80;99.70;;;;;;6225292;28;1075;-84
2023/07/01 17:09:49;;;;;;;;;;;20.90;99.90;;;;;;6224893;28;1105;-82
2023/07/01 17:12:51;;;;;;;;;;;20.70;99.90;;;;;;6224760;28;1975;-81
2023/07/01 17:15:52;;;;;;;;;;;20.80;99.90;;;;;;6224876;28;1041;-81
2023/07/01 17:18:56;;;;;;;;;;;20.80;99.90;;;;;;6225805;28;1058;-82
2023/07/01 17:21:58;;;;;;;;;;;21.00;99.90;;;;;;6228687;28;1081;-81
2023/07/01 17:25:00;;;;;;;;;;;20.90;99.90;;;;;;6228503;28;971;-80
2023/07/01 17:28:02;;;;;;;;;;;20.80;99.90;;;;;;6228542;28;1011;-80
2023/07/01 17:31:04;;;;;;;;;;;20.90;99.90;;;;;;6228550;28;1098;-81
2023/07/01 17:34:07;;;;;;;;;;;20.90;99.90;;;;;;6228021;28;1902;-80
2023/07/01 17:37:09;;;;;;;;;;;20.90;99.90;;;;;;6228341;28;1065;-81
2023/07/01 17:40:12;;;;;;;;;;;20.80;99.90;;;;;;6228088;28;1168;-81
2023/07/01 17:43:14;;;;;;;;;;;20.60;99.90;;;;;;6228247;28;1063;-81
2023/07/01 17:46:15;;;;;;;;;;;20.50;99.90;;;;;;6231405;28;3098;-82
2023/07/01 17:49:18;;;;;;;;;;;20.50;99.90;;;;;;6252590;28;1050;-81
2023/07/01 17:52:20;;;;;;;;;;;20.60;99.90;;;;;;6252287;28;1116;-81
2023/07/01 17:55:22;;;;;;;;;;;20.60;99.90;;;;;;6252167;28;1977;-81
2023/07/01 17:58:24;;;;;;;;;;;20.60;99.90;;;;;;6252059;28;1110;-80
2023/07/01 18:01:25;;;;;;;;;;;20.50;99.90;;;;;;6251969;28;1077;-82
2023/07/01 18:04:28;;;;;;;;;;;20.60;99.90;;;;;;6252075;28;1088;-81
2023/07/01 18:07:30;;;;;;;;;;;20.60;99.90;;;;;;6251824;28;1090;-79
2023/07/01 18:10:32;;;;;;;;;;;20.50;99.90;;;;;;6251775;28;1543;-80